Time;durP1;ratioP1;P1;durP2;ratioP2;P2;SDS_P1;SDS_P2;PMS_P1;PMS_P2;Temp;Humidity;BMP_temperature;BMP_pressure;BME280_temperature;BME280_humidity;BME280_pressure;Samples;Min_cycle;Max_cycle;Signal;HPM_P1;HPM_P2
2021/12/15 00:01:11;;;;;;;;;;;;;;;27.16;57.16;97646.84;610491;232;67305;-65
2021/12/15 00:03:39;;;;;;;;;;;;;;;27.15;56.83;97647.91;610481;232;64666;-65
2021/12/15 00:06:12;;;;;;;;;;;;;;;27.14;58.66;97643.59;610471;232;65238;-65
2021/12/15 00:08:36;;;;;;;;;;;;;;;27.12;58.18;97637.72;610320;232;67282;-65
2021/12/15 00:11:04;;;;;;;;;;;;;;;27.13;58.55;97644.70;610516;232;64487;-65
2021/12/15 00:13:33;;;;;;;;;;;;;;;27.13;61.84;97643.91;610480;232;64961;-71
2021/12/15 00:16:01;;;;;;;;;;;;;;;27.11;59.87;97641.49;610452;232;67168;-72
2021/12/15 00:18:28;;;;;;;;;;;;;;;27.11;59.48;97638.00;610448;232;64868;-72
2021/12/15 00:20:56;;;;;;;;;;;;;;;27.09;56.51;97646.41;610445;232;65064;-72
2021/12/15 00:23:24;;;;;;;;;;;;;;;27.10;55.83;97647.20;610446;232;67302;-72
2021/12/15 00:25:52;;;;;;;;;;;;;;;27.09;58.32;97642.88;610473;232;64644;-72
2021/12/15 00:28:19;;;;;;;;;;;;;;;27.08;56.96;97652.09;610448;232;65079;-72
2021/12/15 00:30:47;;;;;;;;;;;;;;;27.08;56.30;97647.48;610466;232;64467;-72
2021/12/15 00:33:15;;;;;;;;;;;;;;;27.07;56.72;97642.41;610465;232;66965;-72
2021/12/15 00:35:43;;;;;;;;;;;;;;;27.07;56.86;97648.59;610467;232;65627;-72
2021/12/15 00:38:12;;;;;;;;;;;;;;;27.06;57.11;97643.48;610457;232;66978;-72
2021/12/15 00:40:40;;;;;;;;;;;;;;;27.04;58.49;97648.36;610516;232;65614;-72
2021/12/15 00:43:08;;;;;;;;;;;;;;;27.04;58.37;97654.58;610413;232;65178;-72
2021/12/15 00:45:36;;;;;;;;;;;;;;;27.04;56.57;97651.06;610465;232;65994;-72
2021/12/15 00:48:04;;;;;;;;;;;;;;;27.03;61.28;97655.66;610453;232;66800;-71
2021/12/15 00:50:33;;;;;;;;;;;;;;;27.01;57.13;97660.56;610435;232;62444;-71
2021/12/15 00:53:01;;;;;;;;;;;;;;;27.00;57.78;97659.74;610501;232;67305;-72
2021/12/15 00:55:29;;;;;;;;;;;;;;;26.99;57.68;97662.75;610416;232;65073;-72
2021/12/15 00:57:58;;;;;;;;;;;;;;;26.98;57.92;97653.04;609604;232;65125;-72
2021/12/15 01:00:27;;;;;;;;;;;;;;;26.96;57.51;97653.35;609103;233;67232;-72
2021/12/15 01:02:55;;;;;;;;;;;;;;;26.94;56.61;97654.73;608928;233;64513;-72
2021/12/15 01:05:24;;;;;;;;;;;;;;;26.95;58.28;97659.03;609186;233;65940;-72
2021/12/15 01:07:52;;;;;;;;;;;;;;;26.93;60.67;97656.64;609085;233;67732;-72
2021/12/15 01:10:27;;;;;;;;;;;;;;;26.92;58.55;97654.23;609072;233;64870;-72
2021/12/15 01:14:32;;;;;;;;;;;;;;;26.92;56.85;97657.72;608943;233;65133;-72
2021/12/15 01:20:43;;;;;;;;;;;;;;;26.88;58.94;97654.02;609126;233;63630;-71
2021/12/15 01:23:13;;;;;;;;;;;;;;;26.87;60.17;97648.91;608748;233;67244;-71
2021/12/15 01:25:45;;;;;;;;;;;;;;;26.86;58.95;97652.71;609085;233;66759;-71
2021/12/15 01:28:13;;;;;;;;;;;;;;;26.85;58.04;97648.42;608830;233;65251;-71
2021/12/15 01:30:42;;;;;;;;;;;;;;;26.84;60.42;97650.30;609097;233;64724;-71
2021/12/15 01:33:10;;;;;;;;;;;;;;;26.82;59.00;97644.42;609027;233;68103;-72
2021/12/15 01:35:39;;;;;;;;;;;;;;;26.82;60.77;97643.59;609127;233;63054;-71
2021/12/15 01:38:08;;;;;;;;;;;;;;;26.79;59.26;97643.11;609053;233;64504;-66
2021/12/15 01:40:39;;;;;;;;;;;;;;;26.78;60.76;97635.30;609100;233;67077;-72
2021/12/15 01:43:25;;;;;;;;;;;;;;;26.77;58.53;97639.10;609097;233;63017;-71
2021/12/15 01:48:37;;;;;;;;;;;;;;;26.74;61.99;97631.60;609068;233;67072;-72
2021/12/15 01:51:07;;;;;;;;;;;;;;;26.74;58.99;97623.52;609143;233;64979;-73
2021/12/15 01:53:35;;;;;;;;;;;;;;;26.74;61.99;97623.52;609119;233;66765;-73
2021/12/15 01:56:04;;;;;;;;;;;;;;;26.70;60.16;97620.58;609036;233;65770;-73
2021/12/15 01:58:32;;;;;;;;;;;;;;;26.70;60.20;97628.67;610185;232;62876;-73
2021/12/15 02:01:01;;;;;;;;;;;;;;;26.70;61.83;97623.28;610418;232;67569;-73
2021/12/15 02:03:29;;;;;;;;;;;;;;;26.67;60.83;97618.48;610442;232;67033;-72
2021/12/15 02:05:58;;;;;;;;;;;;;;;26.65;62.38;97620.66;610498;232;62868;-73
2021/12/15 02:08:26;;;;;;;;;;;;;;;26.65;60.08;97619.86;610426;232;64524;-73
2021/12/15 02:10:54;;;;;;;;;;;;;;;26.65;63.33;97631.45;610468;232;67095;-73
2021/12/15 02:13:22;;;;;;;;;;;;;;;26.63;63.80;97628.27;610425;232;62992;-73
2021/12/15 02:15:54;;;;;;;;;;;;;;;26.63;62.72;97630.13;610460;232;67318;-73
2021/12/15 02:18:25;;;;;;;;;;;;;;;26.63;62.52;97628.27;610455;232;67098;-72
2021/12/15 02:20:57;;;;;;;;;;;;;;;26.60;62.01;97631.55;610420;232;64917;-72
2021/12/15 02:23:33;;;;;;;;;;;;;;;26.59;62.66;97635.31;610421;232;67781;-67
2021/12/15 02:25:57;;;;;;;;;;;;;;;26.57;63.46;97632.11;610295;232;64529;-67
2021/12/15 02:28:25;;;;;;;;;;;;;;;26.54;64.50;97628.09;610441;232;64990;-67
2021/12/15 02:31:07;;;;;;;;;;;;;;;26.56;65.37;97633.21;610448;232;67213;-67
2021/12/15 02:39:01;;;;;;;;;;;;;;;26.51;64.02;97625.20;610453;232;67195;-65
2021/12/15 02:41:30;;;;;;;;;;;;;;;26.50;64.19;97623.58;610433;232;66933;-65
2021/12/15 02:44:01;;;;;;;;;;;;;;;26.49;63.73;97625.47;610403;232;65950;-65
2021/12/15 02:46:30;;;;;;;;;;;;;;;26.49;65.12;97625.47;610428;232;64782;-65
2021/12/15 02:48:58;;;;;;;;;;;;;;;26.49;65.15;97621.95;610391;232;67530;-65
2021/12/15 02:51:26;;;;;;;;;;;;;;;26.46;64.70;97622.55;610486;232;62642;-65
2021/12/15 02:53:55;;;;;;;;;;;;;;;26.48;63.72;97623.06;610426;232;67173;-65
2021/12/15 02:56:23;;;;;;;;;;;;;;;26.45;65.80;97626.34;610397;230;67139;-65
2021/12/15 02:58:55;;;;;;;;;;;;;;;26.45;66.22;97631.73;609087;232;62644;-65
2021/12/15 03:01:31;;;;;;;;;;;;;;;26.44;66.71;97630.14;608930;233;67361;-66
2021/12/15 03:06:30;;;;;;;;;;;;;;;26.40;66.33;97626.41;609139;233;64896;-66
2021/12/15 03:15:20;;;;;;;;;;;;;;;26.36;66.75;97618.11;609088;233;62638;-72
2021/12/15 03:17:02;;;;;;;;;;;;;;;26.38;65.25;97623.20;608092;233;65175;-71
2021/12/15 03:19:30;;;;;;;;;;;;;;;26.35;65.74;97621.88;609073;230;67968;-71
2021/12/15 03:21:58;;;;;;;;;;;;;;;26.34;67.46;97631.08;609152;233;62577;-71
2021/12/15 03:24:27;;;;;;;;;;;;;;;26.34;67.01;97637.26;609093;233;67300;-71
2021/12/15 03:27:01;;;;;;;;;;;;;;;26.32;65.94;97631.35;609101;233;67009;-71
2021/12/15 03:35:07;;;;;;;;;;;;;;;26.28;65.99;97649.20;609118;233;67068;-65
2021/12/15 03:37:32;;;;;;;;;;;;;;;26.29;67.89;97644.61;609040;233;62942;-65
2021/12/15 03:40:07;;;;;;;;;;;;;;;26.26;66.93;97648.69;608812;233;66825;-66
2021/12/15 03:42:36;;;;;;;;;;;;;;;26.26;66.77;97650.58;609111;233;66531;-65
2021/12/15 03:45:06;;;;;;;;;;;;;;;26.26;67.20;97655.97;609112;233;65259;-65
2021/12/15 03:47:35;;;;;;;;;;;;;;;26.22;65.58;97658.45;609115;233;64542;-66
2021/12/15 03:50:04;;;;;;;;;;;;;;;26.22;66.71;97665.70;609096;233;64433;-65
2021/12/15 03:52:32;;;;;;;;;;;;;;;26.20;66.53;97667.91;609130;233;65042;-65
2021/12/15 03:55:00;;;;;;;;;;;;;;;26.19;65.08;97664.42;609095;233;64496;-65
2021/12/15 03:57:27;;;;;;;;;;;;;;;26.19;66.85;97669.81;609074;231;66816;-65
2021/12/15 03:59:57;;;;;;;;;;;;;;;26.18;66.27;97670.09;609084;233;62551;-65
2021/12/15 04:02:25;;;;;;;;;;;;;;;26.17;67.03;97673.88;609066;233;65071;-65
2021/12/15 04:04:53;;;;;;;;;;;;;;;26.15;66.75;97671.47;609070;233;67342;-65
2021/12/15 04:07:21;;;;;;;;;;;;;;;26.15;65.80;97667.97;609099;233;65171;-65
2021/12/15 04:09:51;;;;;;;;;;;;;;;26.14;66.79;97672.56;609062;233;64709;-65
2021/12/15 04:12:19;;;;;;;;;;;;;;;26.14;67.17;97669.88;609104;233;64708;-72
2021/12/15 04:14:55;;;;;;;;;;;;;;;26.12;65.96;97662.06;609072;233;65107;-71
2021/12/15 04:17:34;;;;;;;;;;;;;;;26.13;66.61;97670.95;608810;233;64763;-71
2021/12/15 04:20:03;;;;;;;;;;;;;;;26.11;66.61;97670.45;609142;230;67780;-71
2021/12/15 04:22:31;;;;;;;;;;;;;;;26.13;66.95;97668.25;609049;233;62665;-65
2021/12/15 04:24:59;;;;;;;;;;;;;;;26.10;67.77;97666.14;609100;233;67870;-65
2021/12/15 04:27:26;;;;;;;;;;;;;;;26.07;66.64;97669.41;609092;233;64953;-65
2021/12/15 04:29:54;;;;;;;;;;;;;;;26.08;67.43;97658.36;609056;233;65218;-65
2021/12/15 04:32:32;;;;;;;;;;;;;;;26.08;67.27;97671.83;609123;233;64770;-65
2021/12/15 04:35:00;;;;;;;;;;;;;;;26.07;67.85;97666.72;608877;233;64457;-65
2021/12/15 04:37:28;;;;;;;;;;;;;;;26.04;67.37;97665.41;609097;233;65008;-65
2021/12/15 04:39:55;;;;;;;;;;;;;;;26.05;67.49;97671.58;609069;233;67395;-65
2021/12/15 04:42:25;;;;;;;;;;;;;;;26.03;67.49;97674.58;609066;233;64653;-65
2021/12/15 04:44:56;;;;;;;;;;;;;;;26.02;67.49;97675.66;609065;233;65083;-65
2021/12/15 04:47:22;;;;;;;;;;;;;;;26.00;66.94;97679.72;609087;232;64736;-66
2021/12/15 04:49:51;;;;;;;;;;;;;;;26.00;67.70;97680.55;609075;233;67881;-66
2021/12/15 04:52:20;;;;;;;;;;;;;;;25.99;66.65;97678.92;609069;233;62641;-72
2021/12/15 04:54:49;;;;;;;;;;;;;;;26.00;68.25;97683.24;609069;233;67298;-71
2021/12/15 04:57:18;;;;;;;;;;;;;;;25.97;66.76;97680.30;609032;233;64321;-71
2021/12/15 04:59:46;;;;;;;;;;;;;;;25.96;66.72;97684.09;609136;233;62660;-72
2021/12/15 05:02:15;;;;;;;;;;;;;;;25.97;67.73;97680.30;609066;233;67015;-72
2021/12/15 05:04:43;;;;;;;;;;;;;;;25.95;66.32;97685.19;609086;233;67166;-72
2021/12/15 05:07:10;;;;;;;;;;;;;;;25.94;67.78;97680.88;609120;233;62654;-72
2021/12/15 05:09:38;;;;;;;;;;;;;;;25.94;68.03;97686.27;609051;233;67173;-72
2021/12/15 05:12:07;;;;;;;;;;;;;;;25.93;67.52;97685.47;609169;230;66859;-72
2021/12/15 05:14:35;;;;;;;;;;;;;;;25.91;67.81;97693.82;609072;233;62960;-72
2021/12/15 05:17:03;;;;;;;;;;;;;;;25.90;67.22;97691.43;609048;233;67212;-72
2021/12/15 05:19:30;;;;;;;;;;;;;;;25.90;68.35;97703.00;609068;233;67379;-72
2021/12/15 05:21:58;;;;;;;;;;;;;;;25.90;66.62;97697.61;609065;233;62792;-72
2021/12/15 05:24:30;;;;;;;;;;;;;;;25.90;67.75;97704.89;609107;233;67315;-71
2021/12/15 05:27:00;;;;;;;;;;;;;;;25.88;67.90;97696.30;609075;233;67360;-72
2021/12/15 05:29:28;;;;;;;;;;;;;;;25.88;68.01;97707.06;609078;233;65245;-72
2021/12/15 05:31:56;;;;;;;;;;;;;;;25.88;68.93;97718.63;609074;233;65003;-72
2021/12/15 05:34:25;;;;;;;;;;;;;;;25.86;67.91;97718.14;609104;233;67234;-72
2021/12/15 05:36:55;;;;;;;;;;;;;;;25.85;67.27;97721.10;608977;233;46461;-72
2021/12/15 05:39:23;;;;;;;;;;;;;;;25.85;67.25;97721.90;609049;233;64733;-72
2021/12/15 05:41:51;;;;;;;;;;;;;;;25.85;67.18;97723.80;609071;233;66981;-72
2021/12/15 05:44:19;;;;;;;;;;;;;;;25.87;68.08;97724.32;609060;233;62661;-72
2021/12/15 05:46:47;;;;;;;;;;;;;;;25.86;67.86;97734.30;609001;233;67410;-72
2021/12/15 05:49:15;;;;;;;;;;;;;;;25.84;67.51;97744.54;609028;233;67020;-72
2021/12/15 05:51:42;;;;;;;;;;;;;;;25.83;67.06;97742.09;609114;233;63062;-72
2021/12/15 05:54:10;;;;;;;;;;;;;;;25.82;68.20;97738.59;609070;233;67316;-72
2021/12/15 05:56:38;;;;;;;;;;;;;;;25.83;65.48;97745.61;609017;233;64761;-72
2021/12/15 05:59:08;;;;;;;;;;;;;;;25.83;68.92;97742.91;608903;233;42601;-72
2021/12/15 06:01:36;;;;;;;;;;;;;;;25.82;66.99;97743.19;608496;233;67460;-72
2021/12/15 06:04:06;;;;;;;;;;;;;;;25.82;68.31;97743.98;609124;233;64969;-72
2021/12/15 06:06:34;;;;;;;;;;;;;;;25.82;67.76;97748.57;609053;233;65152;-72
2021/12/15 06:09:03;;;;;;;;;;;;;;;25.83;69.21;97745.61;609069;233;64527;-72
2021/12/15 06:11:31;;;;;;;;;;;;;;;25.82;68.82;97743.19;609072;233;66792;-72
2021/12/15 06:13:58;;;;;;;;;;;;;;;25.83;68.19;97750.16;609067;233;65189;-72
2021/12/15 06:16:26;;;;;;;;;;;;;;;25.82;68.53;97743.98;609105;233;64804;-72
2021/12/15 06:18:54;;;;;;;;;;;;;;;25.82;68.85;97749.37;609079;233;67225;-72
2021/12/15 06:21:22;;;;;;;;;;;;;;;25.82;67.42;97751.27;609062;233;62921;-72
2021/12/15 06:23:50;;;;;;;;;;;;;;;25.82;69.13;97754.75;609066;233;67937;-72
2021/12/15 06:26:19;;;;;;;;;;;;;;;25.83;68.23;97758.24;609084;233;66750;-73
2021/12/15 06:28:47;;;;;;;;;;;;;;;25.82;66.44;97757.45;609069;233;62635;-71
2021/12/15 06:31:15;;;;;;;;;;;;;;;25.84;67.57;97755.31;609068;233;67207;-71
2021/12/15 06:33:44;;;;;;;;;;;;;;;25.85;68.83;97764.98;609061;233;67650;-71
2021/12/15 06:36:14;;;;;;;;;;;;;;;25.83;68.12;97760.94;609042;233;62640;-71
2021/12/15 06:38:44;;;;;;;;;;;;;;;25.84;68.59;97765.28;608993;233;65089;-65
2021/12/15 06:41:12;;;;;;;;;;;;;;;25.84;68.79;97762.59;609014;233;64990;-65
2021/12/15 06:43:43;;;;;;;;;;;;;;;25.85;68.89;97769.56;609074;233;65005;-65
2021/12/15 06:59:46;;;;;;;;;;;;;;;25.85;66.28;97769.56;607443;232;65338;-65
2021/12/15 07:02:14;;;;;;;;;;;;;;;25.85;67.52;97770.37;610388;232;64706;-64
2021/12/15 07:04:42;;;;;;;;;;;;;;;25.84;64.01;97767.97;610422;232;66795;-73
2021/12/15 07:07:09;;;;;;;;;;;;;;;25.86;67.29;97763.91;609789;232;65189;-74
2021/12/15 07:09:37;;;;;;;;;;;;;;;25.87;65.48;97768.20;610318;232;64800;-71
2021/12/15 07:12:05;;;;;;;;;;;;;;;25.90;66.01;97764.14;610415;232;67237;-69
2021/12/15 07:14:33;;;;;;;;;;;;;;;25.90;65.98;97761.44;606842;232;63027;-69
2021/12/15 07:17:07;;;;;;;;;;;;;;;25.88;66.50;97769.80;604358;234;67229;-71
2021/12/15 07:19:44;;;;;;;;;;;;;;;25.87;65.51;97773.58;599232;236;67043;-69
2021/12/15 07:22:16;;;;;;;;;;;;;;;25.88;65.91;97766.30;603915;234;62765;-69
2021/12/15 07:24:38;;;;;;;;;;;;;;;25.95;58.36;97765.98;599169;236;64838;-68
2021/12/15 07:27:06;;;;;;;;;;;;;;;26.00;63.42;97773.98;604454;234;68031;-72
2021/12/15 07:29:35;;;;;;;;;;;;;;;25.99;64.86;97775.87;599811;236;65292;-72
2021/12/15 07:32:04;;;;;;;;;;;;;;;25.96;64.65;97772.97;604446;234;64683;-71
2021/12/15 07:34:32;;;;;;;;;;;;;;;25.97;64.51;97777.25;599466;236;64988;-73
2021/12/15 07:37:00;;;;;;;;;;;;;;;25.98;62.39;97781.57;604411;234;65034;-72
2021/12/15 07:39:27;;;;;;;;;;;;;;;25.99;63.33;97780.47;599515;236;64926;-68
2021/12/15 07:42:04;;;;;;;;;;;;;;;26.00;64.22;97784.76;604414;234;66506;-72
2021/12/15 07:44:24;;;;;;;;;;;;;;;26.02;63.57;97785.28;599000;236;62702;-73
2021/12/15 07:46:53;;;;;;;;;;;;;;;26.04;64.05;97788.50;604412;234;66901;-73
2021/12/15 07:49:22;;;;;;;;;;;;;;;26.05;63.27;97784.70;599416;236;67420;-72
2021/12/15 07:51:58;;;;;;;;;;;;;;;26.07;64.23;97793.31;604497;234;62940;-68
2021/12/15 07:54:20;;;;;;;;;;;;;;;26.09;62.43;97801.92;599228;236;66867;-72
2021/12/15 07:56:48;;;;;;;;;;;;;;;26.06;65.21;97802.49;604274;234;64798;-73
2021/12/15 07:59:17;;;;;;;;;;;;;;;26.07;63.35;97804.09;598178;237;65049;-71
2021/12/15 08:01:44;;;;;;;;;;;;;;;26.09;63.91;97800.02;602913;235;66859;-71
2021/12/15 08:04:12;;;;;;;;;;;;;;;26.11;63.21;97800.55;598110;237;67057;-71
2021/12/15 08:06:40;;;;;;;;;;;;;;;26.13;63.20;97802.94;602963;235;65063;-71
2021/12/15 08:09:07;;;;;;;;;;;;;;;26.15;64.04;97798.08;598199;237;64688;-71
2021/12/15 08:11:35;;;;;;;;;;;;;;;26.16;64.16;97805.06;603084;235;64864;-71
2021/12/15 08:14:02;;;;;;;;;;;;;;;26.17;63.23;97803.19;598110;237;65282;-71
2021/12/15 08:16:30;;;;;;;;;;;;;;;26.21;62.60;97804.21;603136;235;67336;-72
2021/12/15 08:18:57;;;;;;;;;;;;;;;26.22;62.85;97817.41;598105;237;67063;-71
2021/12/15 08:21:25;;;;;;;;;;;;;;;26.25;62.98;97822.22;603149;235;64900;-71
2021/12/15 08:23:52;;;;;;;;;;;;;;;26.24;62.55;97814.41;598094;237;67075;-71
2021/12/15 08:26:22;;;;;;;;;;;;;;;26.27;61.36;97819.23;603133;235;67021;-70
2021/12/15 08:28:52;;;;;;;;;;;;;;;26.29;62.34;97817.05;598154;237;63020;-71
2021/12/15 08:31:20;;;;;;;;;;;;;;;26.30;62.53;97824.87;603172;235;67090;-71
2021/12/15 08:33:47;;;;;;;;;;;;;;;26.31;63.43;97826.46;598137;237;67268;-71
2021/12/15 08:36:15;;;;;;;;;;;;;;;26.31;62.39;97815.69;603192;235;66179;-71
2021/12/15 08:38:44;;;;;;;;;;;;;;;26.33;62.12;97824.30;598097;237;67151;-68
2021/12/15 08:41:16;;;;;;;;;;;;;;;26.28;57.98;97821.65;603093;235;65031;-71
2021/12/15 08:43:44;;;;;;;;;;;;;;;26.38;60.83;97818.02;598511;237;63038;-72
2021/12/15 08:46:12;;;;;;;;;;;;;;;26.40;61.26;97818.55;603128;235;65178;-71
2021/12/15 08:48:40;;;;;;;;;;;;;;;26.42;61.29;97820.97;598135;237;67021;-71
2021/12/15 08:51:09;;;;;;;;;;;;;;;26.44;61.47;97822.28;603150;235;65304;-66
2021/12/15 08:53:38;;;;;;;;;;;;;;;26.50;58.24;97814.94;598105;237;67219;-74
2021/12/15 08:56:07;;;;;;;;;;;;;;;26.50;59.42;97815.73;603176;235;63989;-72
2021/12/15 08:58:35;;;;;;;;;;;;;;;26.51;59.66;97816.56;601014;236;62954;-72
2021/12/15 09:01:04;;;;;;;;;;;;;;;26.52;59.32;97813.59;607669;233;67136;-71
2021/12/15 09:03:31;;;;;;;;;;;;;;;26.54;59.60;97818.69;601439;236;67196;-71
2021/12/15 09:06:00;;;;;;;;;;;;;;;26.57;59.32;97810.02;607784;233;65038;-71
2021/12/15 09:08:29;;;;;;;;;;;;;;;26.58;58.41;97816.23;601609;235;67009;-71
2021/12/15 09:10:58;;;;;;;;;;;;;;;26.60;59.10;97816.73;601419;235;66911;-72
2021/12/15 09:13:30;;;;;;;;;;;;;;;26.61;58.53;97808.36;607931;231;65074;-72
2021/12/15 09:15:55;;;;;;;;;;;;;;;26.64;59.75;97810.48;595382;235;68459;-70
2021/12/15 09:18:22;;;;;;;;;;;;;;;26.66;58.67;97811.00;596627;233;70321;-71
2021/12/15 09:20:50;;;;;;;;;;;;;;;26.67;60.05;97811.80;601858;235;65171;-72
2021/12/15 09:23:18;;;;;;;;;;;;;;;26.68;60.12;97808.83;601244;235;66716;-72
2021/12/15 09:25:47;;;;;;;;;;;;;;;26.69;60.13;97810.42;607508;233;64761;-70
2021/12/15 09:28:15;;;;;;;;;;;;;;;26.72;59.24;97815.23;601755;235;65103;-71
2021/12/15 09:30:46;;;;;;;;;;;;;;;26.74;60.00;97812.26;601633;233;67481;-70
2021/12/15 09:33:15;;;;;;;;;;;;;;;26.73;59.53;97794.45;607777;233;64837;-70
2021/12/15 09:35:43;;;;;;;;;;;;;;;26.72;59.66;97796.36;601537;235;65126;-70
2021/12/15 09:38:11;;;;;;;;;;;;;;;26.74;60.20;97796.88;601402;235;67368;-71
2021/12/15 09:40:40;;;;;;;;;;;;;;;26.76;59.56;97788.48;607774;233;64958;-71
2021/12/15 09:43:08;;;;;;;;;;;;;;;26.78;59.32;97787.10;601729;235;65077;-70
2021/12/15 09:45:53;;;;;;;;;;;;;;;26.79;59.86;97780.63;601812;235;64875;-70
2021/12/15 10:05:01;;;;;;;;;;;;;;;26.81;57.77;97779.53;597907;237;68211;-66
2021/12/15 10:10:39;;;;;;;;;;;;;;;26.82;57.80;97783.82;602175;235;66118;-68
2021/12/15 10:18:10;;;;;;;;;;;;;;;26.82;59.03;97787.34;603097;235;67095;-65
2021/12/15 10:20:38;;;;;;;;;;;;;;;26.83;59.30;97770.06;603063;235;48199;-67
2021/12/15 10:23:08;;;;;;;;;;;;;;;26.82;59.32;97764.94;598151;237;63106;-65
2021/12/15 10:25:43;;;;;;;;;;;;;;;26.83;59.57;97770.06;602821;235;67225;-68
2021/12/15 10:28:11;;;;;;;;;;;;;;;26.86;59.75;97766.77;598405;235;66995;-69
2021/12/15 10:30:41;;;;;;;;;;;;;;;26.88;59.57;97774.59;603040;235;64779;-61
2021/12/15 10:33:10;;;;;;;;;;;;;;;26.88;58.22;97785.38;598376;235;69883;-59
2021/12/15 10:35:49;;;;;;;;;;;;;;;26.92;58.71;97780.98;603024;235;67011;-59
2021/12/15 10:38:19;;;;;;;;;;;;;;;26.89;59.31;97784.27;597301;237;64934;-69
2021/12/15 10:40:49;;;;;;;;;;;;;;;26.87;58.99;97784.55;602725;235;66886;-69
2021/12/15 10:43:17;;;;;;;;;;;;;;;26.88;58.87;97782.68;598352;237;67068;-69
2021/12/15 10:45:46;;;;;;;;;;;;;;;26.88;58.52;97782.68;603138;235;62585;-69
2021/12/15 10:48:23;;;;;;;;;;;;;;;26.88;58.55;97783.48;598420;237;67700;-67
2021/12/15 10:50:44;;;;;;;;;;;;;;;26.90;58.94;97766.98;602867;235;64991;-67
2021/12/15 10:53:11;;;;;;;;;;;;;;;26.89;57.87;97770.78;598475;237;62807;-67
2021/12/15 10:55:39;;;;;;;;;;;;;;;26.90;57.95;97772.38;603061;235;65071;-67
2021/12/15 10:58:25;;;;;;;;;;;;;;;26.89;57.37;97771.58;600377;236;64982;-68
2021/12/15 11:00:52;;;;;;;;;;;;;;;26.89;57.43;97763.49;607692;233;65225;-68
2021/12/15 11:03:23;;;;;;;;;;;;;;;26.92;58.28;97757.51;601699;235;67171;-67
2021/12/15 11:05:49;;;;;;;;;;;;;;;26.92;57.48;97748.62;601724;235;67034;-67
2021/12/15 11:08:18;;;;;;;;;;;;;;;26.95;58.30;97738.05;607651;233;65815;-68
2021/12/15 11:10:46;;;;;;;;;;;;;;;26.96;57.45;97733.47;601715;235;67314;-67
2021/12/15 11:13:15;;;;;;;;;;;;;;;26.95;57.46;97726.45;601752;235;66889;-67
2021/12/15 11:15:47;;;;;;;;;;;;;;;26.92;57.65;97722.45;607740;233;65003;-68
2021/12/15 11:18:17;;;;;;;;;;;;;;;26.95;57.80;97713.77;601799;235;67053;-68
2021/12/15 11:20:46;;;;;;;;;;;;;;;26.93;57.09;97721.37;607698;233;64846;-68
2021/12/15 11:23:15;;;;;;;;;;;;;;;26.96;57.34;97719.98;601828;235;65041;-68
2021/12/15 11:25:49;;;;;;;;;;;;;;;26.97;58.27;97708.09;601669;235;64905;-67
2021/12/15 11:28:21;;;;;;;;;;;;;;;26.97;56.55;97708.09;607533;233;64741;-69
2021/12/15 11:30:50;;;;;;;;;;;;;;;26.97;57.47;97708.09;601361;236;61343;-68
2021/12/15 11:33:19;;;;;;;;;;;;;;;26.96;58.48;97714.59;607706;233;64857;-68
2021/12/15 11:35:51;;;;;;;;;;;;;;;26.97;57.59;97710.79;601848;235;67357;-68
2021/12/15 11:38:20;;;;;;;;;;;;;;;26.98;58.25;97713.20;601618;235;65082;-67
2021/12/15 11:40:58;;;;;;;;;;;;;;;26.97;57.73;97719.67;607660;233;67220;-67
2021/12/15 11:43:28;;;;;;;;;;;;;;;26.98;58.11;97726.70;601365;236;64953;-67
2021/12/15 11:45:55;;;;;;;;;;;;;;;26.98;57.28;97733.96;608004;233;62611;-67
2021/12/15 11:48:24;;;;;;;;;;;;;;;26.97;56.79;97730.47;608130;233;67340;-67
2021/12/15 11:50:53;;;;;;;;;;;;;;;26.99;58.00;97724.80;608097;233;67623;-68
2021/12/15 11:53:25;;;;;;;;;;;;;;;26.99;57.90;97730.19;608080;233;62657;-68
2021/12/15 11:55:52;;;;;;;;;;;;;;;26.98;57.64;97731.27;607850;233;64093;-69
2021/12/15 11:58:21;;;;;;;;;;;;;;;26.98;56.83;97736.66;608109;233;64579;-67
2021/12/15 12:00:48;;;;;;;;;;;;;;;26.97;57.11;97741.26;607765;233;65299;-66
2021/12/15 12:03:16;;;;;;;;;;;;;;;26.97;57.08;97740.45;608053;233;67025;-67
2021/12/15 12:05:43;;;;;;;;;;;;;;;26.96;56.49;97745.06;608152;233;64452;-68
2021/12/15 12:08:12;;;;;;;;;;;;;;;26.97;57.78;97751.25;608037;233;62737;-64
2021/12/15 12:10:46;;;;;;;;;;;;;;;26.93;55.32;97745.65;608124;233;64692;-63
2021/12/15 12:13:19;;;;;;;;;;;;;;;26.94;57.33;97741.05;608075;233;64670;-72
2021/12/15 12:15:45;;;;;;;;;;;;;;;26.90;56.24;97732.75;607858;233;63031;-70
2021/12/15 12:18:14;;;;;;;;;;;;;;;26.92;56.72;97737.84;608094;233;67981;-71
2021/12/15 12:20:43;;;;;;;;;;;;;;;26.94;56.48;97744.55;608082;233;67043;-71
2021/12/15 12:23:12;;;;;;;;;;;;;;;26.94;56.00;97743.75;607937;233;65094;-69
2021/12/15 12:25:41;;;;;;;;;;;;;;;26.92;57.21;97741.33;607987;233;67290;-71
2021/12/15 12:28:11;;;;;;;;;;;;;;;26.92;57.73;97735.14;608123;233;66934;-67
2021/12/15 12:30:40;;;;;;;;;;;;;;;26.93;57.49;97736.76;608138;233;62764;-72
2021/12/15 12:33:11;;;;;;;;;;;;;;;26.92;57.29;97730.54;608123;233;48733;-72
2021/12/15 12:35:40;;;;;;;;;;;;;;;26.94;56.11;97730.26;607992;233;67076;-72
2021/12/15 12:38:12;;;;;;;;;;;;;;;26.96;55.88;97728.08;608108;233;64849;-71
2021/12/15 12:40:51;;;;;;;;;;;;;;;26.95;55.51;97724.55;608158;233;48416;-72
2021/12/15 12:43:26;;;;;;;;;;;;;;;26.95;55.89;97732.64;608093;233;66764;-71
2021/12/15 12:45:58;;;;;;;;;;;;;;;26.96;55.90;97733.47;607931;233;65058;-70
2021/12/15 12:48:59;;;;;;;;;;;;;;;26.96;54.57;97741.56;608134;233;64897;-71
2021/12/15 12:59:26;;;;;;;;;;;;;;;26.87;52.33;97716.33;608110;233;67122;-69
2021/12/15 13:01:54;;;;;;;;;;;;;;;26.97;53.04;97713.48;608133;233;65384;-70
2021/12/15 13:04:22;;;;;;;;;;;;;;;26.91;50.84;97714.66;608043;233;67208;-70
2021/12/15 13:06:50;;;;;;;;;;;;;;;26.91;53.77;97717.36;608046;233;67010;-71
2021/12/15 13:09:19;;;;;;;;;;;;;;;26.91;53.89;97717.36;608117;233;65039;-70
2021/12/15 13:11:50;;;;;;;;;;;;;;;26.93;54.43;97713.28;608079;233;66998;-70
2021/12/15 13:14:33;;;;;;;;;;;;;;;26.94;54.50;97714.08;608139;233;67064;-72
2021/12/15 13:17:08;;;;;;;;;;;;;;;26.94;55.82;97714.08;607714;233;63008;-71
2021/12/15 13:19:33;;;;;;;;;;;;;;;26.97;54.82;97729.67;607907;233;67408;-70
2021/12/15 13:30:55;;;;;;;;;;;;;;;26.97;55.26;97710.79;608117;233;65000;-71
2021/12/15 13:33:27;;;;;;;;;;;;;;;26.97;54.60;97722.37;608026;233;65115;-70
2021/12/15 13:35:55;;;;;;;;;;;;;;;26.98;54.67;97726.70;606155;233;70116;-71
2021/12/15 13:38:37;;;;;;;;;;;;;;;26.99;54.14;97732.88;608146;233;67011;-70
2021/12/15 13:41:13;;;;;;;;;;;;;;;27.00;54.76;97731.78;603585;233;65341;-70
2021/12/15 13:43:39;;;;;;;;;;;;;;;27.01;55.04;97744.19;607951;233;64978;-69
2021/12/15 13:46:08;;;;;;;;;;;;;;;26.99;55.08;97736.38;607878;233;65023;-70
2021/12/15 13:48:53;;;;;;;;;;;;;;;27.01;55.30;97739.59;607951;233;62482;-67
2021/12/15 13:51:39;;;;;;;;;;;;;;;27.02;55.66;97743.08;604360;233;65026;-68
2021/12/15 13:54:08;;;;;;;;;;;;;;;27.02;56.54;97745.78;607611;233;67025;-68
2021/12/15 13:56:49;;;;;;;;;;;;;;;27.01;55.71;97744.19;608090;232;63022;-69
2021/12/15 13:59:33;;;;;;;;;;;;;;;27.00;55.96;97747.96;610358;232;67200;-69
2021/12/15 14:02:11;;;;;;;;;;;;;;;27.02;56.25;97737.69;610359;232;64837;-69
2021/12/15 14:04:43;;;;;;;;;;;;;;;27.01;56.37;97744.19;610375;232;62986;-67
2021/12/15 14:07:31;;;;;;;;;;;;;;;27.02;56.29;97743.08;610258;232;67187;-65
2021/12/15 14:10:00;;;;;;;;;;;;;;;27.02;56.57;97743.08;610384;232;65241;-72
2021/12/15 14:12:29;;;;;;;;;;;;;;;27.04;56.75;97749.00;610373;232;65070;-66
2021/12/15 14:14:57;;;;;;;;;;;;;;;27.03;57.09;97749.28;609376;232;65144;-69
2021/12/15 14:17:24;;;;;;;;;;;;;;;27.04;56.33;97745.47;610351;232;67039;-69
2021/12/15 14:19:52;;;;;;;;;;;;;;;27.03;56.97;97755.47;610390;232;65042;-70
2021/12/15 14:22:19;;;;;;;;;;;;;;;27.03;57.20;97752.77;610363;232;67193;-71